createdAt,value
2023-02-22T00:01:08.417Z,30.87
2023-02-22T00:03:39.540Z,28.30
2023-02-22T00:06:18.977Z,31.63
2023-02-22T00:08:50.012Z,34.20
2023-02-22T00:11:18.853Z,30.80
2023-02-22T00:13:47.470Z,31.30
2023-02-22T00:16:17.940Z,29.67
2023-02-22T00:18:47.208Z,31.10
2023-02-22T00:21:18.903Z,25.90
2023-02-22T00:23:49.499Z,30.30
2023-02-22T00:26:20.049Z,31.13
2023-02-22T00:28:50.099Z,29.27
2023-02-22T00:31:19.121Z,35.50
2023-02-22T00:33:47.927Z,31.80
2023-02-22T00:36:17.941Z,34.27
2023-02-22T00:38:46.550Z,32.40
2023-02-22T00:41:15.590Z,37.17
2023-02-22T00:43:44.242Z,36.23
2023-02-22T00:46:14.961Z,34.20
2023-02-22T00:48:43.701Z,31.73
2023-02-22T00:51:12.309Z,31.43
2023-02-22T00:53:42.406Z,30.10
2023-02-22T00:56:11.750Z,27.40
2023-02-22T00:58:40.294Z,29.40
2023-02-22T01:01:08.919Z,28.47
2023-02-22T01:03:41.521Z,34.27
2023-02-22T01:06:10.358Z,36.97
2023-02-22T01:08:38.903Z,42.37
2023-02-22T01:11:08.990Z,37.07
2023-02-22T01:13:37.528Z,36.03
2023-02-22T01:16:08.565Z,37.90
2023-02-22T01:18:37.207Z,33.53
2023-02-22T01:21:06.837Z,35.97
2023-02-22T01:23:36.048Z,35.13
2023-02-22T01:26:06.218Z,35.00
2023-02-22T01:28:36.604Z,33.27
2023-02-22T01:31:05.575Z,30.37
2023-02-22T01:33:35.254Z,24.17
2023-02-22T01:36:03.932Z,26.17
2023-02-22T01:38:32.574Z,25.73
2023-02-22T01:41:01.153Z,27.67
2023-02-22T01:43:31.859Z,28.23
2023-02-22T01:46:03.905Z,27.97
2023-02-22T01:48:41.882Z,33.67
2023-02-22T01:51:15.035Z,27.53
2023-02-22T01:53:49.387Z,28.77
2023-02-22T01:56:19.476Z,27.17
2023-02-22T01:58:59.775Z,32.93
2023-02-22T02:01:30.918Z,33.50
2023-02-22T02:04:02.972Z,31.23
2023-02-22T02:06:50.859Z,36.17
2023-02-22T02:09:27.344Z,33.27
2023-02-22T02:11:56.398Z,29.77
2023-02-22T02:14:26.854Z,29.70
2023-02-22T02:16:57.598Z,27.83
2023-02-22T02:19:42.754Z,31.07
2023-02-22T02:22:34.891Z,35.60
2023-02-22T02:25:54.424Z,30.30
2023-02-22T02:29:08.660Z,24.40
2023-02-22T02:32:18.142Z,25.77
2023-02-22T02:34:53.066Z,25.73
2023-02-22T02:37:26.394Z,26.77
2023-02-22T02:40:00.601Z,27.07
2023-02-22T02:42:35.515Z,21.03
2023-02-22T02:45:10.971Z,28.43
2023-02-22T02:47:48.618Z,26.67
2023-02-22T02:50:23.075Z,13.77
2023-02-22T02:52:54.421Z,12.80
2023-02-22T02:55:23.579Z,14.97
2023-02-22T02:57:52.787Z,19.87
2023-02-22T03:00:27.261Z,22.40
2023-02-22T03:03:08.719Z,25.47
2023-02-22T03:05:59.716Z,26.00
2023-02-22T03:08:36.106Z,23.23
2023-02-22T03:11:15.639Z,20.20
2023-02-22T03:13:53.132Z,26.83
2023-02-22T03:16:30.154Z,27.37
2023-02-22T03:19:07.809Z,31.43
2023-02-22T03:21:43.681Z,30.33
2023-02-22T03:24:20.269Z,24.40
2023-02-22T03:26:54.912Z,23.57
2023-02-22T03:29:26.557Z,25.70
2023-02-22T03:32:01.656Z,24.83
2023-02-22T03:34:35.778Z,22.40
2023-02-22T03:37:09.644Z,23.47
2023-02-22T03:39:39.812Z,26.77
2023-02-22T03:42:14.145Z,25.13
2023-02-22T03:44:45.203Z,28.10
2023-02-22T03:47:19.335Z,30.87
2023-02-22T03:49:54.368Z,27.70
2023-02-22T03:52:23.669Z,27.17
2023-02-22T03:54:53.869Z,21.90
2023-02-22T03:57:27.056Z,32.47
2023-02-22T03:59:55.777Z,31.20
2023-02-22T04:02:25.336Z,30.53
2023-02-22T04:04:55.417Z,25.77
2023-02-22T04:10:11.354Z,30.40
2023-02-22T04:12:40.426Z,28.53
2023-02-22T04:15:10.612Z,32.07
2023-02-22T04:17:39.547Z,38.10
2023-02-22T04:20:11.900Z,31.63
2023-02-22T04:22:40.587Z,33.30
2023-02-22T04:25:09.730Z,28.40
2023-02-22T04:27:38.344Z,29.87
2023-02-22T04:30:07.776Z,30.63
2023-02-22T04:32:36.512Z,30.30
2023-02-22T04:35:05.252Z,25.03
2023-02-22T04:37:35.276Z,27.47
2023-02-22T04:40:07.911Z,25.47
2023-02-22T04:42:36.794Z,24.57
2023-02-22T04:45:08.143Z,29.33
2023-02-22T04:47:36.776Z,33.30
2023-02-22T04:50:06.297Z,28.67
2023-02-22T04:52:36.275Z,28.30
2023-02-22T04:55:05.318Z,24.87
2023-02-22T04:57:33.865Z,27.83
2023-02-22T05:00:02.442Z,31.87
2023-02-22T05:02:31.078Z,38.70
2023-02-22T05:04:59.748Z,18.45
2023-02-22T05:07:28.367Z,21.37
2023-02-22T05:09:58.332Z,16.77
2023-02-22T05:12:29.218Z,33.80
2023-02-22T05:14:57.912Z,35.10
2023-02-22T05:17:26.542Z,34.40
2023-02-22T05:19:55.084Z,28.93
2023-02-22T05:22:24.691Z,29.20
2023-02-22T05:24:53.632Z,27.43
2023-02-22T05:27:23.717Z,29.07
2023-02-22T05:29:52.454Z,30.70
2023-02-22T05:32:21.600Z,32.77
2023-02-22T05:34:50.151Z,30.10
2023-02-22T05:37:18.788Z,26.87
2023-02-22T05:39:47.808Z,26.57
2023-02-22T05:42:16.356Z,29.97
2023-02-22T05:44:46.379Z,28.43
2023-02-22T05:47:15.005Z,27.00
2023-02-22T05:49:43.547Z,27.50
2023-02-22T05:52:12.170Z,23.83
2023-02-22T05:54:40.834Z,25.58
2023-02-22T07:11:11.042Z,37.03
2023-02-22T07:13:39.734Z,50.17
2023-02-22T07:23:58.202Z,49.50
2023-02-22T07:26:29.736Z,67.33
2023-02-22T07:28:58.341Z,31.13
2023-02-22T07:31:29.561Z,20.23
2023-02-22T07:33:58.488Z,15.57
2023-02-22T07:36:27.143Z,26.80
2023-02-22T07:38:55.794Z,42.10
2023-02-22T07:41:24.561Z,55.97
2023-02-22T07:43:54.666Z,40.77
2023-02-22T07:46:23.353Z,59.40
2023-02-22T07:48:52.031Z,59.97
2023-02-22T07:51:20.978Z,79.87
2023-02-22T07:53:50.566Z,82.67
2023-02-22T07:56:19.194Z,90.00
2023-02-22T07:58:47.743Z,99.60
2023-02-22T08:01:18.214Z,97.27
2023-02-22T08:03:47.815Z,112.90
2023-02-22T08:06:16.708Z,101.17
2023-02-22T08:08:45.528Z,84.73
2023-02-22T08:11:14.836Z,63.25
2023-02-22T08:13:43.799Z,64.67
2023-02-22T08:16:14.452Z,38.83
2023-02-22T08:18:44.489Z,49.37
2023-02-22T08:21:13.069Z,79.20
2023-02-22T08:23:44.823Z,63.83
2023-02-22T08:26:18.696Z,69.33
2023-02-22T08:28:47.504Z,70.77
2023-02-22T08:31:16.423Z,94.33
2023-02-22T08:33:49.537Z,100.03
2023-02-22T08:36:18.774Z,76.60
2023-02-22T08:38:47.366Z,101.53
2023-02-22T08:41:16.407Z,97.17
2023-02-22T08:43:45.320Z,103.37
2023-02-22T08:46:14.079Z,107.13
2023-02-22T08:48:51.662Z,110.33
2023-02-22T08:51:20.412Z,105.53
2023-02-22T08:53:49.052Z,81.47
2023-02-22T08:56:17.655Z,81.97
2023-02-22T08:58:46.301Z,115.00
2023-02-22T09:01:19.309Z,97.27
2023-02-22T09:03:52.308Z,94.43
2023-02-22T09:06:20.934Z,79.13
2023-02-22T09:08:49.724Z,78.57
2023-02-22T09:11:19.146Z,73.77
2023-02-22T09:13:47.836Z,17.85
2023-02-22T09:16:16.589Z,8.40
2023-02-22T09:18:45.612Z,21.40
2023-02-22T09:21:15.991Z,78.13
2023-02-22T09:23:44.817Z,110.93
2023-02-22T09:26:16.250Z,113.23
2023-02-22T09:28:44.828Z,131.07
2023-02-22T09:31:13.711Z,126.20
2023-02-22T09:33:43.077Z,107.07
2023-02-22T09:36:12.007Z,101.87
2023-02-22T09:38:42.093Z,120.47
2023-02-22T09:41:19.939Z,119.97
2023-02-22T09:43:57.615Z,103.60
2023-02-22T09:46:33.361Z,105.00
2023-02-22T09:49:07.287Z,116.23
2023-02-22T09:51:41.440Z,75.73
2023-02-22T09:54:24.157Z,74.33
2023-02-22T09:56:57.614Z,34.57
2023-02-22T09:59:33.110Z,36.60
2023-02-22T10:02:09.023Z,39.67
2023-02-22T10:04:43.462Z,36.70
2023-02-22T10:07:19.916Z,30.43
2023-02-22T10:09:51.680Z,23.47
2023-02-22T10:12:30.220Z,21.80
2023-02-22T10:15:27.607Z,22.10
2023-02-22T10:18:05.232Z,25.47
2023-02-22T10:20:52.676Z,23.07
2023-02-22T10:23:29.968Z,21.33
2023-02-22T10:26:12.689Z,27.30
2023-02-22T10:28:46.345Z,29.53
2023-02-22T10:32:06.985Z,70.22
2023-02-22T10:34:47.152Z,23.63
2023-02-22T10:37:27.777Z,25.27
2023-02-22T10:40:05.793Z,21.83
2023-02-22T10:42:36.031Z,27.43
2023-02-22T10:45:05.260Z,37.03
2023-02-22T10:47:35.331Z,54.33
2023-02-22T10:50:04.603Z,51.33
2023-02-22T10:52:35.020Z,50.80
2023-02-22T10:55:15.269Z,51.80
2023-02-22T10:57:49.967Z,52.67
2023-02-22T11:00:21.347Z,31.20
2023-02-22T11:02:54.969Z,31.60
2023-02-22T11:05:37.207Z,11.90
2023-02-22T11:08:26.228Z,109.13
2023-02-22T11:10:57.131Z,59.77
2023-02-22T11:13:30.218Z,46.40
2023-02-22T11:16:03.342Z,38.67
2023-02-22T11:18:35.418Z,11.88
2023-02-22T11:21:08.009Z,80.23
2023-02-22T11:23:45.045Z,44.43
2023-02-22T11:26:16.449Z,41.73
2023-02-22T11:28:49.708Z,32.07
2023-02-22T11:31:22.051Z,30.87
2023-02-22T11:33:58.277Z,25.93
2023-02-22T11:36:40.705Z,19.87
2023-02-22T11:39:24.607Z,18.67
2023-02-22T11:41:53.913Z,22.20
2023-02-22T11:44:37.829Z,23.07
2023-02-22T11:47:13.578Z,31.43
2023-02-22T11:49:46.096Z,25.87
2023-02-22T11:52:24.580Z,46.40
2023-02-22T11:55:36.431Z,47.90
2023-02-22T11:58:32.452Z,30.53
2023-02-22T12:01:10.273Z,28.53
2023-02-22T12:04:18.223Z,29.83
2023-02-22T12:06:54.014Z,33.10
2023-02-22T12:09:34.409Z,24.57
2023-02-22T12:12:15.040Z,38.90
2023-02-22T12:14:55.677Z,36.93
2023-02-22T12:17:48.169Z,32.03
2023-02-22T12:20:27.469Z,26.30
2023-02-22T12:23:07.026Z,34.73
2023-02-22T12:25:39.010Z,29.67
2023-02-22T12:28:24.740Z,27.07
2023-02-22T12:31:01.549Z,30.77
2023-02-22T12:33:45.511Z,28.53
2023-02-22T12:36:17.436Z,33.77
2023-02-22T12:38:52.424Z,30.80
2023-02-22T12:41:28.425Z,29.40
2023-02-22T12:44:04.685Z,25.17
2023-02-22T12:46:38.024Z,37.70
2023-02-22T12:49:17.921Z,34.00
2023-02-22T12:51:53.980Z,35.80
2023-02-22T12:54:26.784Z,33.23
2023-02-22T12:57:01.065Z,43.17
2023-02-22T12:59:35.000Z,43.10
2023-02-22T13:02:14.291Z,42.27
2023-02-22T13:04:44.420Z,28.83
2023-02-22T13:07:26.988Z,43.47
2023-02-22T13:10:26.563Z,45.70
2023-02-22T13:13:04.102Z,24.80
2023-02-22T13:15:42.855Z,33.60
2023-02-22T13:18:18.401Z,26.33
2023-02-22T13:20:54.011Z,33.10
2023-02-22T13:23:39.233Z,37.07
2023-02-22T13:26:16.740Z,44.17
2023-02-22T13:28:50.406Z,41.70
2023-02-22T13:31:39.299Z,28.97
2023-02-22T13:34:30.085Z,38.80
2023-02-22T13:37:22.717Z,33.43
2023-02-22T13:40:12.164Z,29.93
2023-02-22T13:43:00.088Z,19.00
2023-02-22T13:45:55.540Z,20.37
2023-02-22T13:48:37.727Z,21.23
2023-02-22T13:51:20.843Z,21.33
2023-02-22T13:53:57.037Z,23.03
2023-02-22T13:56:27.148Z,33.03
2023-02-22T13:58:58.591Z,31.87
2023-02-22T14:01:42.488Z,29.63
2023-02-22T14:04:37.328Z,27.80
2023-02-22T14:07:21.813Z,14.57
2023-02-22T14:09:54.146Z,12.10
2023-02-22T14:12:50.109Z,15.43
2023-02-22T14:15:30.862Z,15.13
2023-02-22T14:18:02.287Z,22.23
2023-02-22T14:20:35.165Z,20.80
2023-02-22T14:23:30.644Z,20.00
2023-02-22T14:26:12.719Z,15.43
2023-02-22T14:28:48.909Z,12.53
2023-02-22T14:31:34.911Z,10.90
2023-02-22T14:34:10.625Z,13.00
2023-02-22T14:36:47.862Z,16.57
2023-02-22T14:39:23.346Z,18.80
2023-02-22T14:42:01.646Z,22.27
2023-02-22T14:44:37.392Z,18.73
2023-02-22T14:47:09.341Z,14.37
2023-02-22T14:49:43.354Z,16.93
2023-02-22T14:52:22.813Z,19.20
2023-02-22T14:54:59.943Z,15.00
2023-02-22T14:57:39.345Z,13.80
2023-02-22T15:00:20.257Z,24.93
2023-02-22T15:02:50.136Z,25.07
2023-02-22T15:05:21.035Z,21.33
2023-02-22T15:07:54.986Z,23.13
2023-02-22T15:10:32.412Z,23.20
2023-02-22T15:13:11.152Z,16.90
2023-02-22T15:15:43.969Z,19.63
2023-02-22T15:18:25.060Z,19.53
2023-02-22T15:20:58.349Z,23.10
2023-02-22T15:23:31.025Z,21.87
2023-02-22T15:25:59.613Z,18.30
2023-02-22T15:28:32.346Z,18.80
2023-02-22T15:31:19.131Z,19.37
2023-02-22T15:33:48.447Z,18.93
2023-02-22T15:36:18.750Z,23.47
2023-02-22T15:38:52.059Z,30.23
2023-02-22T15:41:28.671Z,24.83
2023-02-22T15:44:14.231Z,31.90
2023-02-22T15:46:52.471Z,32.70
2023-02-22T15:49:24.744Z,35.20
2023-02-22T15:52:10.091Z,35.87
2023-02-22T15:54:41.967Z,31.83
2023-02-22T15:57:10.922Z,33.27
2023-02-22T15:59:48.332Z,32.33
2023-02-22T16:02:35.826Z,50.33
2023-02-22T16:05:08.602Z,30.80
2023-02-22T16:07:45.503Z,42.90
2023-02-22T16:10:30.146Z,41.57
2023-02-22T16:13:07.297Z,44.53
2023-02-22T16:15:38.780Z,35.60
2023-02-22T16:18:27.287Z,51.57
2023-02-22T16:21:04.401Z,38.73
2023-02-22T16:23:35.929Z,44.10
2023-02-22T16:26:20.582Z,37.80
2023-02-22T16:28:52.118Z,32.47
2023-02-22T16:31:26.974Z,44.50
2023-02-22T16:33:56.713Z,42.60
2023-02-22T16:36:38.981Z,44.27
2023-02-22T16:39:08.751Z,50.27
2023-02-22T16:41:38.152Z,53.37
2023-02-22T16:44:08.040Z,51.80
2023-02-22T16:46:38.227Z,41.17
2023-02-22T16:49:07.181Z,46.17
2023-02-22T16:51:42.960Z,47.47
2023-02-22T16:54:14.234Z,47.87
2023-02-22T16:56:43.191Z,42.63
2023-02-22T16:59:14.241Z,45.60
2023-02-22T17:01:44.677Z,40.70
2023-02-22T17:04:16.400Z,64.60
2023-02-22T17:06:45.102Z,74.93
2023-02-22T17:09:14.092Z,59.83
2023-02-22T17:11:43.122Z,50.13
2023-02-22T17:14:17.698Z,65.17
2023-02-22T17:16:47.954Z,49.13
2023-02-22T17:19:18.824Z,54.73
2023-02-22T17:21:50.494Z,56.27
2023-02-22T17:24:22.756Z,58.13
2023-02-22T17:26:52.188Z,69.17
2023-02-22T17:29:20.960Z,58.53
2023-02-22T17:31:51.253Z,72.70
2023-02-22T17:34:19.897Z,62.23
2023-02-22T17:36:48.736Z,42.03
2023-02-22T17:39:17.558Z,51.67
2023-02-22T17:41:46.227Z,46.23
2023-02-22T17:44:14.745Z,61.77
2023-02-22T17:46:43.422Z,60.07
2023-02-22T17:49:14.238Z,55.57
2023-02-22T17:51:43.211Z,50.50
2023-02-22T17:54:11.727Z,60.50
2023-02-22T17:56:41.626Z,53.07
2023-02-22T17:59:10.440Z,50.37
2023-02-22T18:01:44.158Z,41.50
2023-02-22T18:04:14.299Z,41.33
2023-02-22T18:06:43.068Z,42.40
2023-02-22T18:09:11.974Z,41.50
2023-02-22T18:11:41.331Z,38.50
2023-02-22T18:14:11.022Z,41.73
2023-02-22T18:16:39.880Z,34.70
2023-02-22T18:19:08.566Z,41.93
2023-02-22T18:21:38.919Z,41.70
2023-02-22T18:24:08.157Z,37.27
2023-02-22T18:26:39.345Z,36.57
2023-02-22T18:29:08.144Z,37.93
2023-02-22T18:31:36.869Z,40.80
2023-02-22T18:34:05.570Z,40.83
2023-02-22T18:36:34.838Z,41.80
2023-02-22T18:39:11.845Z,36.90
2023-02-22T18:41:40.554Z,43.50
2023-02-22T18:44:11.222Z,39.33
2023-02-22T18:46:39.928Z,36.10
2023-02-22T18:49:08.504Z,42.80
2023-02-22T18:51:37.092Z,40.67
2023-02-22T18:54:07.733Z,40.13
2023-02-22T18:56:36.297Z,40.30
2023-02-22T18:59:06.790Z,39.20
2023-02-22T19:01:38.897Z,45.20
2023-02-22T19:04:12.431Z,37.67
2023-02-22T19:06:43.534Z,40.20
2023-02-22T19:09:13.789Z,41.00
2023-02-22T19:11:45.139Z,38.87
2023-02-22T19:14:14.740Z,47.23
2023-02-22T19:16:46.634Z,43.63
2023-02-22T19:19:20.867Z,47.60
2023-02-22T19:21:49.902Z,44.27
2023-02-22T19:24:20.856Z,40.53
2023-02-22T19:26:50.995Z,36.30
2023-02-22T19:29:22.355Z,39.67
2023-02-22T19:31:52.000Z,35.43
2023-02-22T19:34:25.265Z,32.17
2023-02-22T19:36:53.918Z,44.47
2023-02-22T19:39:26.149Z,47.20
2023-02-22T19:41:54.932Z,45.40
2023-02-22T19:44:23.774Z,32.87
2023-02-22T19:46:55.333Z,22.93
2023-02-22T19:51:58.670Z,24.07
2023-02-22T19:54:51.134Z,23.43
2023-02-22T19:57:19.755Z,22.90
2023-02-22T19:59:52.948Z,36.47
2023-02-22T20:02:26.333Z,24.27
2023-02-22T20:04:55.472Z,25.80
2023-02-22T20:07:23.993Z,22.13
2023-02-22T20:09:53.947Z,33.90
2023-02-22T20:12:22.577Z,35.33
2023-02-22T20:14:51.194Z,30.03
2023-02-22T20:17:19.704Z,38.93
2023-02-22T20:19:49.097Z,42.23
2023-02-22T20:22:18.260Z,44.67
2023-02-22T20:24:47.688Z,34.50
2023-02-22T20:27:17.851Z,41.33
2023-02-22T20:29:46.349Z,39.40
2023-02-22T20:32:15.756Z,32.37
2023-02-22T20:34:47.498Z,39.80
2023-02-22T20:37:16.104Z,29.23
2023-02-22T20:39:44.875Z,41.90
2023-02-22T20:42:15.780Z,48.27
2023-02-22T20:44:46.352Z,47.07
2023-02-22T20:47:14.883Z,35.37
2023-02-22T20:49:43.407Z,22.47
2023-02-22T20:52:12.071Z,27.63
2023-02-22T20:54:40.899Z,28.67
2023-02-22T20:57:09.409Z,36.43
2023-02-22T20:59:38.059Z,51.97
2023-02-22T21:02:08.772Z,52.77
2023-02-22T21:04:37.360Z,56.87
2023-02-22T21:07:05.986Z,41.93
2023-02-22T21:09:34.720Z,38.50
2023-02-22T21:12:07.414Z,41.37
2023-02-22T21:14:37.518Z,32.33
2023-02-22T21:17:08.211Z,35.80
2023-02-22T21:19:36.846Z,32.17
2023-02-22T21:22:09.367Z,33.00
2023-02-22T21:24:38.532Z,34.87
2023-02-22T21:27:07.541Z,42.93
2023-02-22T21:29:36.638Z,33.90
2023-02-22T21:32:05.442Z,30.83
2023-02-22T21:35:10.227Z,32.20
2023-02-22T21:37:39.348Z,25.23
2023-02-22T21:40:19.332Z,28.40
2023-02-22T21:42:49.287Z,24.13
2023-02-22T21:45:19.161Z,32.77
2023-02-22T21:47:48.357Z,31.53
2023-02-22T21:50:19.992Z,28.07
2023-02-22T21:52:49.953Z,23.90
2023-02-22T21:55:19.555Z,15.70
2023-02-22T21:57:48.131Z,142.47
2023-02-22T22:00:29.230Z,42.00
2023-02-22T22:03:05.226Z,30.97
2023-02-22T22:05:35.282Z,29.37
2023-02-22T22:08:07.539Z,26.20
2023-02-22T22:10:37.740Z,28.37
2023-02-22T22:13:09.722Z,31.53
2023-02-22T22:15:38.441Z,25.13
2023-02-22T22:18:08.273Z,28.40
2023-02-22T22:20:39.277Z,27.03
2023-02-22T22:23:08.639Z,21.93
2023-02-22T22:25:38.997Z,15.68
2023-02-22T22:28:08.219Z,139.37
2023-02-22T22:30:37.418Z,44.87
2023-02-22T22:33:08.604Z,31.40
2023-02-22T22:35:41.980Z,22.17
2023-02-22T22:38:10.933Z,27.48
2023-02-22T22:40:40.120Z,144.07
2023-02-22T22:43:08.865Z,56.27
2023-02-22T22:45:39.717Z,35.70
2023-02-22T22:48:09.106Z,34.13
2023-02-22T22:50:39.033Z,22.73
2023-02-22T22:53:07.631Z,89.43
2023-02-22T22:55:40.997Z,29.90
2023-02-22T22:58:11.403Z,22.10
2023-02-22T23:00:41.758Z,20.00
2023-02-22T23:03:16.604Z,75.50
2023-02-22T23:05:47.028Z,30.45
2023-02-22T23:08:15.897Z,121.73
2023-02-22T23:10:44.455Z,45.77
2023-02-22T23:13:15.775Z,27.97
2023-02-22T23:15:47.806Z,24.23
2023-02-22T23:18:20.711Z,20.23
2023-02-22T23:20:55.489Z,17.83
2023-02-22T23:23:27.821Z,17.47
2023-02-22T23:26:04.054Z,16.53
2023-02-22T23:28:32.649Z,17.30
2023-02-22T23:31:03.456Z,16.57
2023-02-22T23:33:32.445Z,15.87
2023-02-22T23:36:04.593Z,15.43
2023-02-22T23:38:35.020Z,13.63
2023-02-22T23:41:04.876Z,13.60
2023-02-22T23:43:46.220Z,13.03
2023-02-22T23:46:18.777Z,9.63
2023-02-22T23:48:53.233Z,10.27
2023-02-22T23:51:25.818Z,10.88
2023-02-22T23:53:56.060Z,78.70
2023-02-22T23:56:26.770Z,16.80
2023-02-22T23:58:57.661Z,18.93
